Terminal Aerodrome Forecast
Issued by NWS

Home | Current Version | Previous Version | Text Only | Print | Product List | Glossary On
Versions: 1 2 3 4 5 6 7 8 9 10 11 12 13
000
FTUS45 KFGZ 021739
TAFPRC
TAF
KPRC 021739Z 0218/0318 19007KT P6SM SCT060 SCT100
     FM021900 25009KT P6SM SCT060 OVC110
      TEMPO 0220/0224 VRB10G20KT 5SM -SHRA OVC050
     FM030200 20006KT P6SM SKC=

USA.gov is the U.S. government's official web portal to all federal, state and local government web resources and services.